sensor_id;sensor_type;location;lat;lon;timestamp;P1;durP1;ratioP1;P2;durP2;ratioP2
47225;SDS011;32965;64.142;-21.912;2022-12-07T00:01:16;2.43;;;0.63;;
47225;SDS011;32965;64.142;-21.912;2022-12-07T00:04:10;2.00;;;0.93;;
47225;SDS011;32965;64.142;-21.912;2022-12-07T00:06:39;2.43;;;1.07;;
47225;SDS011;32965;64.142;-21.912;2022-12-07T00:09:07;3.67;;;1.40;;
47225;SDS011;32965;64.142;-21.912;2022-12-07T00:11:36;4.07;;;1.90;;
47225;SDS011;32965;64.142;-21.912;2022-12-07T00:14:03;3.17;;;1.63;;
47225;SDS011;32965;64.142;-21.912;2022-12-07T00:16:32;3.40;;;1.00;;
47225;SDS011;32965;64.142;-21.912;2022-12-07T00:18:59;1.67;;;0.70;;
47225;SDS011;32965;64.142;-21.912;2022-12-07T00:21:26;2.47;;;0.73;;
47225;SDS011;32965;64.142;-21.912;2022-12-07T00:23:54;2.65;;;0.65;;
47225;SDS011;32965;64.142;-21.912;2022-12-07T00:26:25;4.30;;;0.50;;
47225;SDS011;32965;64.142;-21.912;2022-12-07T00:28:54;1.27;;;0.57;;
47225;SDS011;32965;64.142;-21.912;2022-12-07T00:31:21;4.40;;;0.67;;
47225;SDS011;32965;64.142;-21.912;2022-12-07T00:33:49;2.47;;;0.40;;
47225;SDS011;32965;64.142;-21.912;2022-12-07T00:36:16;1.90;;;0.30;;
47225;SDS011;32965;64.142;-21.912;2022-12-07T00:38:44;2.20;;;0.40;;
47225;SDS011;32965;64.142;-21.912;2022-12-07T00:41:11;0.87;;;0.23;;
47225;SDS011;32965;64.142;-21.912;2022-12-07T00:43:41;2.80;;;0.63;;
47225;SDS011;32965;64.142;-21.912;2022-12-07T00:46:09;2.57;;;0.43;;
47225;SDS011;32965;64.142;-21.912;2022-12-07T00:48:36;1.00;;;0.40;;
47225;SDS011;32965;64.142;-21.912;2022-12-07T00:51:02;2.87;;;0.60;;
47225;SDS011;32965;64.142;-21.912;2022-12-07T00:53:28;2.30;;;0.70;;
47225;SDS011;32965;64.142;-21.912;2022-12-07T00:55:54;0.43;;;0.43;;
47225;SDS011;32965;64.142;-21.912;2022-12-07T00:58:23;2.20;;;0.68;;
47225;SDS011;32965;64.142;-21.912;2022-12-07T01:00:49;1.17;;;0.50;;
47225;SDS011;32965;64.142;-21.912;2022-12-07T01:03:15;2.73;;;0.70;;
47225;SDS011;32965;64.142;-21.912;2022-12-07T01:05:48;1.20;;;0.33;;
47225;SDS011;32965;64.142;-21.912;2022-12-07T01:08:18;1.10;;;0.57;;
47225;SDS011;32965;64.142;-21.912;2022-12-07T01:10:44;0.87;;;0.57;;
47225;SDS011;32965;64.142;-21.912;2022-12-07T01:13:10;3.13;;;0.80;;
47225;SDS011;32965;64.142;-21.912;2022-12-07T01:15:38;2.80;;;0.60;;
47225;SDS011;32965;64.142;-21.912;2022-12-07T01:18:05;1.13;;;0.37;;
47225;SDS011;32965;64.142;-21.912;2022-12-07T01:20:31;0.80;;;0.40;;
47225;SDS011;32965;64.142;-21.912;2022-12-07T01:22:56;2.53;;;0.60;;
47225;SDS011;32965;64.142;-21.912;2022-12-07T01:25:22;1.53;;;0.47;;
47225;SDS011;32965;64.142;-21.912;2022-12-07T01:27:48;2.80;;;0.23;;
47225;SDS011;32965;64.142;-21.912;2022-12-07T01:30:13;1.43;;;0.50;;
47225;SDS011;32965;64.142;-21.912;2022-12-07T01:32:39;3.70;;;0.87;;
47225;SDS011;32965;64.142;-21.912;2022-12-07T01:35:05;1.80;;;0.57;;
47225;SDS011;32965;64.142;-21.912;2022-12-07T01:37:37;2.20;;;0.57;;
47225;SDS011;32965;64.142;-21.912;2022-12-07T01:40:04;2.07;;;0.60;;
47225;SDS011;32965;64.142;-21.912;2022-12-07T01:42:32;1.83;;;0.37;;
47225;SDS011;32965;64.142;-21.912;2022-12-07T01:47:43;2.80;;;0.57;;
47225;SDS011;32965;64.142;-21.912;2022-12-07T01:50:12;0.90;;;0.60;;
47225;SDS011;32965;64.142;-21.912;2022-12-07T01:52:38;2.60;;;0.53;;
47225;SDS011;32965;64.142;-21.912;2022-12-07T01:55:10;0.93;;;0.43;;
47225;SDS011;32965;64.142;-21.912;2022-12-07T01:57:40;0.93;;;0.40;;
47225;SDS011;32965;64.142;-21.912;2022-12-07T02:00:08;2.73;;;0.60;;
47225;SDS011;32965;64.142;-21.912;2022-12-07T02:02:36;2.60;;;0.70;;
47225;SDS011;32965;64.142;-21.912;2022-12-07T02:05:06;1.33;;;0.60;;
47225;SDS011;32965;64.142;-21.912;2022-12-07T02:07:34;1.30;;;0.50;;
47225;SDS011;32965;64.142;-21.912;2022-12-07T02:10:15;0.77;;;0.50;;
47225;SDS011;32965;64.142;-21.912;2022-12-07T02:12:43;2.20;;;0.63;;
47225;SDS011;32965;64.142;-21.912;2022-12-07T02:28:37;2.83;;;1.17;;
47225;SDS011;32965;64.142;-21.912;2022-12-07T02:31:25;2.70;;;1.00;;
47225;SDS011;32965;64.142;-21.912;2022-12-07T02:33:58;2.03;;;1.15;;
47225;SDS011;32965;64.142;-21.912;2022-12-07T02:36:31;1.67;;;0.70;;
47225;SDS011;32965;64.142;-21.912;2022-12-07T02:39:11;3.17;;;1.00;;
47225;SDS011;32965;64.142;-21.912;2022-12-07T02:41:46;1.47;;;1.03;;
47225;SDS011;32965;64.142;-21.912;2022-12-07T02:44:36;2.70;;;1.07;;
47225;SDS011;32965;64.142;-21.912;2022-12-07T02:47:06;3.03;;;1.27;;
47225;SDS011;32965;64.142;-21.912;2022-12-07T02:49:36;1.47;;;0.80;;
47225;SDS011;32965;64.142;-21.912;2022-12-07T02:52:04;1.43;;;0.70;;
47225;SDS011;32965;64.142;-21.912;2022-12-07T02:54:29;4.10;;;0.83;;
47225;SDS011;32965;64.142;-21.912;2022-12-07T03:02:31;1.42;;;0.75;;
47225;SDS011;32965;64.142;-21.912;2022-12-07T03:08:02;3.40;;;0.83;;
47225;SDS011;32965;64.142;-21.912;2022-12-07T03:16:41;2.03;;;0.83;;
47225;SDS011;32965;64.142;-21.912;2022-12-07T03:18:56;1.80;;;0.60;;
47225;SDS011;32965;64.142;-21.912;2022-12-07T03:21:33;3.70;;;0.73;;
47225;SDS011;32965;64.142;-21.912;2022-12-07T03:24:31;1.70;;;0.60;;
47225;SDS011;32965;64.142;-21.912;2022-12-07T03:27:08;2.63;;;1.13;;
47225;SDS011;32965;64.142;-21.912;2022-12-07T03:29:40;1.70;;;0.77;;
47225;SDS011;32965;64.142;-21.912;2022-12-07T03:32:31;1.30;;;0.60;;
47225;SDS011;32965;64.142;-21.912;2022-12-07T03:40:19;0.87;;;0.70;;
47225;SDS011;32965;64.142;-21.912;2022-12-07T03:42:53;3.47;;;0.60;;
47225;SDS011;32965;64.142;-21.912;2022-12-07T03:45:21;1.43;;;0.67;;
47225;SDS011;32965;64.142;-21.912;2022-12-07T03:50:40;1.83;;;0.60;;
47225;SDS011;32965;64.142;-21.912;2022-12-07T03:55:44;2.53;;;0.77;;
47225;SDS011;32965;64.142;-21.912;2022-12-07T03:58:12;4.33;;;0.50;;
47225;SDS011;32965;64.142;-21.912;2022-12-07T04:00:41;1.83;;;0.43;;
47225;SDS011;32965;64.142;-21.912;2022-12-07T04:03:08;2.67;;;0.50;;
47225;SDS011;32965;64.142;-21.912;2022-12-07T04:05:35;4.47;;;0.63;;
47225;SDS011;32965;64.142;-21.912;2022-12-07T04:08:02;0.77;;;0.60;;
47225;SDS011;32965;64.142;-21.912;2022-12-07T04:10:27;3.47;;;0.70;;
47225;SDS011;32965;64.142;-21.912;2022-12-07T04:12:53;0.90;;;0.50;;
47225;SDS011;32965;64.142;-21.912;2022-12-07T04:15:19;2.40;;;0.70;;
47225;SDS011;32965;64.142;-21.912;2022-12-07T04:17:45;1.50;;;0.50;;
47225;SDS011;32965;64.142;-21.912;2022-12-07T04:20:11;0.63;;;0.40;;
47225;SDS011;32965;64.142;-21.912;2022-12-07T04:22:37;1.27;;;0.40;;
47225;SDS011;32965;64.142;-21.912;2022-12-07T04:25:03;1.10;;;0.40;;
47225;SDS011;32965;64.142;-21.912;2022-12-07T04:27:29;2.03;;;0.30;;
47225;SDS011;32965;64.142;-21.912;2022-12-07T04:29:55;1.20;;;0.30;;
47225;SDS011;32965;64.142;-21.912;2022-12-07T04:32:21;0.87;;;0.20;;
47225;SDS011;32965;64.142;-21.912;2022-12-07T04:34:47;1.47;;;0.40;;
47225;SDS011;32965;64.142;-21.912;2022-12-07T04:37:13;1.40;;;0.47;;
47225;SDS011;32965;64.142;-21.912;2022-12-07T04:39:39;1.03;;;0.30;;
47225;SDS011;32965;64.142;-21.912;2022-12-07T04:42:04;0.60;;;0.20;;
47225;SDS011;32965;64.142;-21.912;2022-12-07T04:44:30;1.27;;;0.50;;
47225;SDS011;32965;64.142;-21.912;2022-12-07T04:46:56;1.13;;;0.30;;
47225;SDS011;32965;64.142;-21.912;2022-12-07T04:49:23;0.30;;;0.20;;
47225;SDS011;32965;64.142;-21.912;2022-12-07T04:51:50;0.73;;;0.20;;
47225;SDS011;32965;64.142;-21.912;2022-12-07T04:54:16;1.23;;;0.10;;
47225;SDS011;32965;64.142;-21.912;2022-12-07T04:56:43;1.17;;;0.30;;
47225;SDS011;32965;64.142;-21.912;2022-12-07T04:59:10;1.57;;;0.20;;
47225;SDS011;32965;64.142;-21.912;2022-12-07T05:01:37;0.77;;;0.40;;
47225;SDS011;32965;64.142;-21.912;2022-12-07T05:04:03;0.27;;;0.20;;
47225;SDS011;32965;64.142;-21.912;2022-12-07T05:06:28;0.67;;;0.50;;
47225;SDS011;32965;64.142;-21.912;2022-12-07T05:08:54;0.60;;;0.30;;
47225;SDS011;32965;64.142;-21.912;2022-12-07T05:11:20;0.90;;;0.20;;
47225;SDS011;32965;64.142;-21.912;2022-12-07T05:16:35;0.57;;;0.20;;
47225;SDS011;32965;64.142;-21.912;2022-12-07T05:19:02;0.73;;;0.20;;
47225;SDS011;32965;64.142;-21.912;2022-12-07T05:21:28;0.70;;;0.10;;
47225;SDS011;32965;64.142;-21.912;2022-12-07T05:23:54;0.10;;;0.10;;
47225;SDS011;32965;64.142;-21.912;2022-12-07T05:26:20;0.20;;;0.10;;
47225;SDS011;32965;64.142;-21.912;2022-12-07T05:28:49;0.50;;;0.10;;
47225;SDS011;32965;64.142;-21.912;2022-12-07T05:31:19;0.50;;;0.20;;
47225;SDS011;32965;64.142;-21.912;2022-12-07T05:33:45;1.70;;;0.20;;
47225;SDS011;32965;64.142;-21.912;2022-12-07T05:36:11;0.20;;;0.10;;
47225;SDS011;32965;64.142;-21.912;2022-12-07T05:38:37;0.60;;;0.10;;
47225;SDS011;32965;64.142;-21.912;2022-12-07T05:41:03;2.43;;;0.50;;
47225;SDS011;32965;64.142;-21.912;2022-12-07T05:43:31;0.03;;;0.00;;
47225;SDS011;32965;64.142;-21.912;2022-12-07T05:45:57;0.00;;;0.00;;
47225;SDS011;32965;64.142;-21.912;2022-12-07T05:48:23;0.40;;;0.20;;
47225;SDS011;32965;64.142;-21.912;2022-12-07T05:50:50;1.30;;;0.60;;
47225;SDS011;32965;64.142;-21.912;2022-12-07T05:53:16;2.07;;;0.30;;
47225;SDS011;32965;64.142;-21.912;2022-12-07T05:55:42;0.90;;;0.23;;
47225;SDS011;32965;64.142;-21.912;2022-12-07T05:58:09;0.73;;;0.23;;
47225;SDS011;32965;64.142;-21.912;2022-12-07T06:00:56;1.37;;;0.20;;
47225;SDS011;32965;64.142;-21.912;2022-12-07T06:05:48;1.10;;;0.50;;
47225;SDS011;32965;64.142;-21.912;2022-12-07T06:08:14;2.50;;;0.50;;
47225;SDS011;32965;64.142;-21.912;2022-12-07T06:10:42;0.70;;;0.47;;
47225;SDS011;32965;64.142;-21.912;2022-12-07T06:13:08;0.90;;;0.50;;
47225;SDS011;32965;64.142;-21.912;2022-12-07T06:15:37;2.93;;;0.73;;
47225;SDS011;32965;64.142;-21.912;2022-12-07T06:18:02;1.65;;;0.60;;
47225;SDS011;32965;64.142;-21.912;2022-12-07T06:20:28;3.27;;;0.70;;
47225;SDS011;32965;64.142;-21.912;2022-12-07T06:22:54;0.97;;;0.60;;
47225;SDS011;32965;64.142;-21.912;2022-12-07T06:25:20;3.00;;;0.57;;
47225;SDS011;32965;64.142;-21.912;2022-12-07T06:27:46;1.47;;;0.67;;
47225;SDS011;32965;64.142;-21.912;2022-12-07T06:30:11;2.90;;;1.07;;
47225;SDS011;32965;64.142;-21.912;2022-12-07T06:32:37;1.13;;;0.67;;
47225;SDS011;32965;64.142;-21.912;2022-12-07T06:35:03;1.47;;;0.93;;
47225;SDS011;32965;64.142;-21.912;2022-12-07T06:37:29;4.47;;;1.03;;
47225;SDS011;32965;64.142;-21.912;2022-12-07T06:39:55;3.27;;;1.20;;
47225;SDS011;32965;64.142;-21.912;2022-12-07T06:42:21;3.77;;;0.90;;
47225;SDS011;32965;64.142;-21.912;2022-12-07T06:44:47;3.67;;;1.00;;
47225;SDS011;32965;64.142;-21.912;2022-12-07T06:47:12;2.80;;;1.37;;
47225;SDS011;32965;64.142;-21.912;2022-12-07T06:49:38;2.97;;;1.20;;
47225;SDS011;32965;64.142;-21.912;2022-12-07T06:52:04;3.37;;;1.53;;
47225;SDS011;32965;64.142;-21.912;2022-12-07T06:54:30;2.57;;;1.00;;
47225;SDS011;32965;64.142;-21.912;2022-12-07T06:56:56;2.43;;;0.90;;
47225;SDS011;32965;64.142;-21.912;2022-12-07T06:59:22;3.80;;;1.17;;
47225;SDS011;32965;64.142;-21.912;2022-12-07T07:01:48;1.73;;;0.87;;
47225;SDS011;32965;64.142;-21.912;2022-12-07T07:04:13;3.27;;;1.30;;
47225;SDS011;32965;64.142;-21.912;2022-12-07T07:06:39;3.77;;;1.20;;
47225;SDS011;32965;64.142;-21.912;2022-12-07T07:09:05;3.60;;;1.40;;
47225;SDS011;32965;64.142;-21.912;2022-12-07T07:11:31;3.87;;;1.10;;
47225;SDS011;32965;64.142;-21.912;2022-12-07T07:13:56;3.07;;;0.90;;
47225;SDS011;32965;64.142;-21.912;2022-12-07T07:16:27;2.57;;;1.00;;
47225;SDS011;32965;64.142;-21.912;2022-12-07T07:18:56;3.03;;;1.00;;
47225;SDS011;32965;64.142;-21.912;2022-12-07T07:21:22;1.60;;;1.03;;
47225;SDS011;32965;64.142;-21.912;2022-12-07T07:23:48;2.50;;;1.30;;
47225;SDS011;32965;64.142;-21.912;2022-12-07T07:26:13;1.53;;;0.80;;
47225;SDS011;32965;64.142;-21.912;2022-12-07T07:28:39;2.93;;;1.20;;
47225;SDS011;32965;64.142;-21.912;2022-12-07T07:31:05;2.70;;;1.00;;
47225;SDS011;32965;64.142;-21.912;2022-12-07T07:33:30;3.67;;;1.30;;
47225;SDS011;32965;64.142;-21.912;2022-12-07T07:35:56;2.67;;;0.93;;
47225;SDS011;32965;64.142;-21.912;2022-12-07T07:38:22;3.20;;;1.10;;
47225;SDS011;32965;64.142;-21.912;2022-12-07T07:40:47;1.70;;;0.80;;
47225;SDS011;32965;64.142;-21.912;2022-12-07T07:43:13;2.77;;;1.27;;
47225;SDS011;32965;64.142;-21.912;2022-12-07T07:45:39;3.90;;;1.70;;
47225;SDS011;32965;64.142;-21.912;2022-12-07T07:48:05;3.63;;;1.53;;
47225;SDS011;32965;64.142;-21.912;2022-12-07T07:50:31;1.40;;;0.90;;
47225;SDS011;32965;64.142;-21.912;2022-12-07T07:52:57;3.20;;;1.23;;
47225;SDS011;32965;64.142;-21.912;2022-12-07T07:55:23;4.30;;;1.37;;
47225;SDS011;32965;64.142;-21.912;2022-12-07T07:57:49;4.83;;;1.03;;
47225;SDS011;32965;64.142;-21.912;2022-12-07T08:00:15;3.03;;;1.30;;
47225;SDS011;32965;64.142;-21.912;2022-12-07T08:02:41;3.90;;;1.20;;
47225;SDS011;32965;64.142;-21.912;2022-12-07T08:05:08;2.77;;;1.13;;
47225;SDS011;32965;64.142;-21.912;2022-12-07T08:07:34;1.97;;;1.07;;
47225;SDS011;32965;64.142;-21.912;2022-12-07T08:10:00;3.50;;;1.00;;
47225;SDS011;32965;64.142;-21.912;2022-12-07T08:12:26;2.43;;;0.97;;
47225;SDS011;32965;64.142;-21.912;2022-12-07T08:14:51;1.90;;;0.70;;
47225;SDS011;32965;64.142;-21.912;2022-12-07T08:17:17;2.10;;;1.00;;
47225;SDS011;32965;64.142;-21.912;2022-12-07T08:19:43;2.03;;;0.83;;
47225;SDS011;32965;64.142;-21.912;2022-12-07T08:22:08;2.27;;;0.90;;
47225;SDS011;32965;64.142;-21.912;2022-12-07T08:24:34;1.90;;;0.80;;
47225;SDS011;32965;64.142;-21.912;2022-12-07T08:27:00;1.17;;;0.80;;
47225;SDS011;32965;64.142;-21.912;2022-12-07T08:29:27;1.43;;;0.60;;
47225;SDS011;32965;64.142;-21.912;2022-12-07T08:31:52;2.50;;;0.80;;
47225;SDS011;32965;64.142;-21.912;2022-12-07T08:34:18;2.50;;;0.90;;
47225;SDS011;32965;64.142;-21.912;2022-12-07T08:36:44;2.73;;;1.10;;
47225;SDS011;32965;64.142;-21.912;2022-12-07T08:39:10;3.17;;;0.90;;
47225;SDS011;32965;64.142;-21.912;2022-12-07T08:41:35;2.67;;;0.70;;
47225;SDS011;32965;64.142;-21.912;2022-12-07T08:44:01;3.83;;;0.83;;
47225;SDS011;32965;64.142;-21.912;2022-12-07T08:46:32;0.87;;;0.60;;
47225;SDS011;32965;64.142;-21.912;2022-12-07T08:49:11;2.83;;;1.00;;
47225;SDS011;32965;64.142;-21.912;2022-12-07T08:51:47;2.53;;;1.50;;
47225;SDS011;32965;64.142;-21.912;2022-12-07T08:54:14;3.20;;;0.70;;
47225;SDS011;32965;64.142;-21.912;2022-12-07T08:56:41;3.40;;;1.10;;
47225;SDS011;32965;64.142;-21.912;2022-12-07T08:59:08;2.27;;;1.00;;
47225;SDS011;32965;64.142;-21.912;2022-12-07T09:01:34;4.30;;;1.00;;
47225;SDS011;32965;64.142;-21.912;2022-12-07T09:04:00;1.00;;;0.60;;
47225;SDS011;32965;64.142;-21.912;2022-12-07T09:06:26;2.73;;;0.83;;
47225;SDS011;32965;64.142;-21.912;2022-12-07T09:08:53;1.47;;;0.73;;
47225;SDS011;32965;64.142;-21.912;2022-12-07T09:11:22;1.03;;;0.70;;
47225;SDS011;32965;64.142;-21.912;2022-12-07T09:13:47;2.20;;;0.60;;
47225;SDS011;32965;64.142;-21.912;2022-12-07T09:16:13;1.97;;;0.70;;
47225;SDS011;32965;64.142;-21.912;2022-12-07T09:18:39;1.23;;;0.60;;
47225;SDS011;32965;64.142;-21.912;2022-12-07T09:21:05;1.33;;;0.80;;
47225;SDS011;32965;64.142;-21.912;2022-12-07T09:23:30;2.10;;;0.47;;
47225;SDS011;32965;64.142;-21.912;2022-12-07T09:26:03;4.07;;;1.07;;
47225;SDS011;32965;64.142;-21.912;2022-12-07T09:28:30;2.33;;;1.10;;
47225;SDS011;32965;64.142;-21.912;2022-12-07T09:30:56;4.27;;;1.20;;
47225;SDS011;32965;64.142;-21.912;2022-12-07T09:33:22;2.23;;;1.00;;
47225;SDS011;32965;64.142;-21.912;2022-12-07T09:35:48;1.93;;;1.00;;
47225;SDS011;32965;64.142;-21.912;2022-12-07T09:38:15;2.63;;;1.13;;
47225;SDS011;32965;64.142;-21.912;2022-12-07T09:40:41;5.47;;;1.23;;
47225;SDS011;32965;64.142;-21.912;2022-12-07T09:43:15;2.20;;;1.13;;
47225;SDS011;32965;64.142;-21.912;2022-12-07T09:45:44;2.30;;;1.10;;
47225;SDS011;32965;64.142;-21.912;2022-12-07T09:48:17;2.30;;;1.30;;
47225;SDS011;32965;64.142;-21.912;2022-12-07T09:50:45;6.47;;;0.95;;
47225;SDS011;32965;64.142;-21.912;2022-12-07T09:53:14;4.87;;;0.73;;
47225;SDS011;32965;64.142;-21.912;2022-12-07T09:55:50;1.83;;;0.70;;
47225;SDS011;32965;64.142;-21.912;2022-12-07T09:58:26;1.27;;;0.67;;
47225;SDS011;32965;64.142;-21.912;2022-12-07T10:00:54;1.57;;;0.60;;
47225;SDS011;32965;64.142;-21.912;2022-12-07T10:03:23;5.57;;;0.83;;
47225;SDS011;32965;64.142;-21.912;2022-12-07T10:05:51;1.98;;;0.80;;
47225;SDS011;32965;64.142;-21.912;2022-12-07T10:08:18;1.67;;;0.60;;
47225;SDS011;32965;64.142;-21.912;2022-12-07T10:10:44;5.00;;;1.00;;
47225;SDS011;32965;64.142;-21.912;2022-12-07T10:13:12;36.40;;;8.33;;
47225;SDS011;32965;64.142;-21.912;2022-12-07T10:15:50;7.70;;;1.40;;
47225;SDS011;32965;64.142;-21.912;2022-12-07T10:20:46;20.07;;;3.30;;
47225;SDS011;32965;64.142;-21.912;2022-12-07T10:23:16;23.97;;;4.47;;
47225;SDS011;32965;64.142;-21.912;2022-12-07T10:25:43;39.90;;;7.47;;
47225;SDS011;32965;64.142;-21.912;2022-12-07T10:30:55;21.93;;;3.40;;
47225;SDS011;32965;64.142;-21.912;2022-12-07T10:33:29;16.77;;;3.17;;
47225;SDS011;32965;64.142;-21.912;2022-12-07T10:35:56;18.57;;;3.30;;
47225;SDS011;32965;64.142;-21.912;2022-12-07T10:38:24;16.67;;;3.17;;
47225;SDS011;32965;64.142;-21.912;2022-12-07T10:41:12;23.27;;;3.35;;
47225;SDS011;32965;64.142;-21.912;2022-12-07T10:43:41;14.87;;;2.73;;
47225;SDS011;32965;64.142;-21.912;2022-12-07T10:46:26;10.97;;;2.40;;
47225;SDS011;32965;64.142;-21.912;2022-12-07T10:51:46;13.40;;;1.97;;
47225;SDS011;32965;64.142;-21.912;2022-12-07T10:57:40;10.82;;;1.70;;
47225;SDS011;32965;64.142;-21.912;2022-12-07T11:05:28;6.00;;;1.17;;
47225;SDS011;32965;64.142;-21.912;2022-12-07T11:08:05;11.53;;;1.37;;
47225;SDS011;32965;64.142;-21.912;2022-12-07T11:10:42;6.45;;;1.13;;
47225;SDS011;32965;64.142;-21.912;2022-12-07T11:16:24;4.57;;;1.27;;
47225;SDS011;32965;64.142;-21.912;2022-12-07T11:21:59;1.97;;;1.00;;
47225;SDS011;32965;64.142;-21.912;2022-12-07T11:27:28;1.53;;;0.70;;
47225;SDS011;32965;64.142;-21.912;2022-12-07T11:32:42;4.63;;;0.80;;
47225;SDS011;32965;64.142;-21.912;2022-12-07T11:35:24;1.80;;;0.70;;
47225;SDS011;32965;64.142;-21.912;2022-12-07T11:38:01;1.47;;;0.73;;
47225;SDS011;32965;64.142;-21.912;2022-12-07T11:40:43;5.10;;;0.83;;
47225;SDS011;32965;64.142;-21.912;2022-12-07T11:43:14;0.97;;;0.43;;
47225;SDS011;32965;64.142;-21.912;2022-12-07T11:45:52;3.63;;;0.47;;
47225;SDS011;32965;64.142;-21.912;2022-12-07T11:48:35;2.77;;;0.40;;
47225;SDS011;32965;64.142;-21.912;2022-12-07T11:51:07;1.27;;;0.40;;
47225;SDS011;32965;64.142;-21.912;2022-12-07T11:53:40;0.90;;;0.53;;
47225;SDS011;32965;64.142;-21.912;2022-12-07T11:56:31;1.53;;;0.60;;
47225;SDS011;32965;64.142;-21.912;2022-12-07T11:59:12;2.27;;;0.40;;
47225;SDS011;32965;64.142;-21.912;2022-12-07T12:01:57;3.75;;;0.63;;
47225;SDS011;32965;64.142;-21.912;2022-12-07T12:04:47;2.07;;;1.03;;
47225;SDS011;32965;64.142;-21.912;2022-12-07T12:07:21;3.50;;;0.83;;
47225;SDS011;32965;64.142;-21.912;2022-12-07T12:13:20;3.07;;;1.00;;
47225;SDS011;32965;64.142;-21.912;2022-12-07T12:15:59;2.83;;;1.20;;
47225;SDS011;32965;64.142;-21.912;2022-12-07T12:21:53;1.37;;;0.73;;
47225;SDS011;32965;64.142;-21.912;2022-12-07T12:24:23;1.90;;;0.90;;
47225;SDS011;32965;64.142;-21.912;2022-12-07T12:26:59;3.20;;;1.00;;
47225;SDS011;32965;64.142;-21.912;2022-12-07T12:29:32;1.57;;;0.80;;
47225;SDS011;32965;64.142;-21.912;2022-12-07T12:32:05;2.20;;;0.83;;
47225;SDS011;32965;64.142;-21.912;2022-12-07T12:35:03;6.93;;;1.00;;
47225;SDS011;32965;64.142;-21.912;2022-12-07T12:37:54;2.43;;;0.67;;
47225;SDS011;32965;64.142;-21.912;2022-12-07T12:42:53;1.20;;;0.30;;
47225;SDS011;32965;64.142;-21.912;2022-12-07T12:48:02;1.50;;;0.67;;
47225;SDS011;32965;64.142;-21.912;2022-12-07T12:50:36;0.60;;;0.40;;
47225;SDS011;32965;64.142;-21.912;2022-12-07T12:58:44;1.83;;;0.70;;
47225;SDS011;32965;64.142;-21.912;2022-12-07T13:04:00;0.67;;;0.47;;
47225;SDS011;32965;64.142;-21.912;2022-12-07T13:08:53;1.07;;;0.60;;
47225;SDS011;32965;64.142;-21.912;2022-12-07T13:11:32;2.23;;;0.40;;
47225;SDS011;32965;64.142;-21.912;2022-12-07T13:17:02;3.00;;;0.53;;
47225;SDS011;32965;64.142;-21.912;2022-12-07T13:25:02;1.50;;;0.60;;
47225;SDS011;32965;64.142;-21.912;2022-12-07T13:27:34;1.77;;;0.80;;
47225;SDS011;32965;64.142;-21.912;2022-12-07T13:30:07;1.07;;;0.60;;
47225;SDS011;32965;64.142;-21.912;2022-12-07T13:32:54;1.57;;;0.60;;
47225;SDS011;32965;64.142;-21.912;2022-12-07T13:35:31;2.53;;;0.90;;
47225;SDS011;32965;64.142;-21.912;2022-12-07T13:37:58;6.97;;;1.50;;
47225;SDS011;32965;64.142;-21.912;2022-12-07T13:40:26;12.97;;;2.97;;
47225;SDS011;32965;64.142;-21.912;2022-12-07T13:43:02;9.90;;;2.13;;
47225;SDS011;32965;64.142;-21.912;2022-12-07T13:45:30;15.13;;;2.33;;
47225;SDS011;32965;64.142;-21.912;2022-12-07T13:48:21;10.60;;;2.47;;
47225;SDS011;32965;64.142;-21.912;2022-12-07T13:50:54;11.27;;;2.63;;
47225;SDS011;32965;64.142;-21.912;2022-12-07T13:53:21;24.27;;;3.17;;
47225;SDS011;32965;64.142;-21.912;2022-12-07T13:55:47;11.13;;;2.97;;
47225;SDS011;32965;64.142;-21.912;2022-12-07T13:58:13;12.37;;;2.67;;
47225;SDS011;32965;64.142;-21.912;2022-12-07T14:00:40;9.63;;;2.33;;
47225;SDS011;32965;64.142;-21.912;2022-12-07T14:05:39;9.93;;;1.90;;
47225;SDS011;32965;64.142;-21.912;2022-12-07T14:10:36;14.45;;;2.33;;
47225;SDS011;32965;64.142;-21.912;2022-12-07T14:15:49;3.63;;;1.30;;
47225;SDS011;32965;64.142;-21.912;2022-12-07T14:18:29;8.05;;;1.75;;
47225;SDS011;32965;64.142;-21.912;2022-12-07T14:23:36;4.00;;;1.53;;
47225;SDS011;32965;64.142;-21.912;2022-12-07T14:26:18;5.73;;;0.83;;
47225;SDS011;32965;64.142;-21.912;2022-12-07T14:28:45;4.00;;;1.00;;
47225;SDS011;32965;64.142;-21.912;2022-12-07T14:31:13;2.77;;;0.60;;
47225;SDS011;32965;64.142;-21.912;2022-12-07T14:33:43;2.27;;;1.03;;
47225;SDS011;32965;64.142;-21.912;2022-12-07T14:36:09;3.30;;;1.00;;
47225;SDS011;32965;64.142;-21.912;2022-12-07T14:38:37;2.10;;;1.10;;
47225;SDS011;32965;64.142;-21.912;2022-12-07T14:41:03;3.30;;;1.00;;
47225;SDS011;32965;64.142;-21.912;2022-12-07T14:43:50;3.13;;;0.70;;
47225;SDS011;32965;64.142;-21.912;2022-12-07T14:46:16;6.70;;;1.53;;
47225;SDS011;32965;64.142;-21.912;2022-12-07T14:48:41;3.77;;;1.00;;
47225;SDS011;32965;64.142;-21.912;2022-12-07T14:51:08;2.80;;;1.17;;
47225;SDS011;32965;64.142;-21.912;2022-12-07T14:53:39;5.87;;;1.30;;
47225;SDS011;32965;64.142;-21.912;2022-12-07T14:56:11;5.80;;;1.33;;
47225;SDS011;32965;64.142;-21.912;2022-12-07T14:58:36;12.27;;;2.60;;
47225;SDS011;32965;64.142;-21.912;2022-12-07T15:01:02;9.43;;;2.10;;
47225;SDS011;32965;64.142;-21.912;2022-12-07T15:03:28;9.00;;;1.40;;
47225;SDS011;32965;64.142;-21.912;2022-12-07T15:05:54;7.33;;;1.47;;
47225;SDS011;32965;64.142;-21.912;2022-12-07T15:08:20;8.73;;;2.43;;
47225;SDS011;32965;64.142;-21.912;2022-12-07T15:10:46;2.03;;;1.20;;
47225;SDS011;32965;64.142;-21.912;2022-12-07T15:13:12;5.70;;;1.27;;
47225;SDS011;32965;64.142;-21.912;2022-12-07T15:18:26;5.70;;;1.40;;
47225;SDS011;32965;64.142;-21.912;2022-12-07T15:20:52;6.30;;;1.20;;
47225;SDS011;32965;64.142;-21.912;2022-12-07T15:23:17;4.23;;;1.03;;
47225;SDS011;32965;64.142;-21.912;2022-12-07T15:25:44;8.70;;;1.13;;
47225;SDS011;32965;64.142;-21.912;2022-12-07T15:28:11;4.60;;;1.10;;
47225;SDS011;32965;64.142;-21.912;2022-12-07T15:30:38;5.50;;;1.57;;
47225;SDS011;32965;64.142;-21.912;2022-12-07T15:33:04;2.70;;;0.77;;
47225;SDS011;32965;64.142;-21.912;2022-12-07T15:35:30;5.33;;;1.37;;
47225;SDS011;32965;64.142;-21.912;2022-12-07T15:37:55;2.33;;;0.67;;
47225;SDS011;32965;64.142;-21.912;2022-12-07T15:40:21;2.20;;;0.60;;
47225;SDS011;32965;64.142;-21.912;2022-12-07T15:42:47;4.47;;;0.77;;
47225;SDS011;32965;64.142;-21.912;2022-12-07T15:45:12;2.17;;;0.60;;
47225;SDS011;32965;64.142;-21.912;2022-12-07T15:47:42;1.20;;;0.67;;
47225;SDS011;32965;64.142;-21.912;2022-12-07T15:50:13;5.67;;;0.70;;
47225;SDS011;32965;64.142;-21.912;2022-12-07T15:52:41;1.05;;;0.40;;
47225;SDS011;32965;64.142;-21.912;2022-12-07T15:55:07;1.43;;;0.70;;
47225;SDS011;32965;64.142;-21.912;2022-12-07T15:57:34;2.73;;;0.57;;
47225;SDS011;32965;64.142;-21.912;2022-12-07T16:00:02;2.07;;;1.17;;
47225;SDS011;32965;64.142;-21.912;2022-12-07T16:02:29;4.33;;;0.70;;
47225;SDS011;32965;64.142;-21.912;2022-12-07T16:04:55;2.47;;;0.70;;
47225;SDS011;32965;64.142;-21.912;2022-12-07T16:07:21;2.97;;;0.70;;
47225;SDS011;32965;64.142;-21.912;2022-12-07T16:09:47;1.30;;;0.50;;
47225;SDS011;32965;64.142;-21.912;2022-12-07T16:12:14;0.83;;;0.40;;
47225;SDS011;32965;64.142;-21.912;2022-12-07T16:14:40;2.27;;;0.80;;
47225;SDS011;32965;64.142;-21.912;2022-12-07T16:17:07;2.30;;;0.70;;
47225;SDS011;32965;64.142;-21.912;2022-12-07T16:19:34;1.93;;;0.80;;
47225;SDS011;32965;64.142;-21.912;2022-12-07T16:22:00;1.57;;;0.60;;
47225;SDS011;32965;64.142;-21.912;2022-12-07T16:24:26;2.03;;;0.77;;
47225;SDS011;32965;64.142;-21.912;2022-12-07T16:26:53;2.93;;;0.67;;
47225;SDS011;32965;64.142;-21.912;2022-12-07T16:29:20;1.90;;;0.70;;
47225;SDS011;32965;64.142;-21.912;2022-12-07T16:31:47;1.20;;;0.77;;